sensor_id;sensor_type;location;lat;lon;timestamp;temperature;humidity
11221;DHT22;8517;53.546;10.104;2024-03-02T00:01:07;12.70;99.90
11221;DHT22;8517;53.546;10.104;2024-03-02T00:03:33;12.60;99.90
11221;DHT22;8517;53.546;10.104;2024-03-02T00:06:00;12.60;99.90
11221;DHT22;8517;53.546;10.104;2024-03-02T00:08:27;12.60;99.90
11221;DHT22;8517;53.546;10.104;2024-03-02T00:10:57;12.50;99.90
11221;DHT22;8517;53.546;10.104;2024-03-02T00:13:25;12.50;99.90
11221;DHT22;8517;53.546;10.104;2024-03-02T00:15:53;12.40;99.90
11221;DHT22;8517;53.546;10.104;2024-03-02T00:18:25;12.40;99.90
11221;DHT22;8517;53.546;10.104;2024-03-02T00:20:53;12.30;99.90
11221;DHT22;8517;53.546;10.104;2024-03-02T00:23:21;12.30;99.90
11221;DHT22;8517;53.546;10.104;2024-03-02T00:25:50;12.20;99.90
11221;DHT22;8517;53.546;10.104;2024-03-02T00:28:20;12.20;99.90
11221;DHT22;8517;53.546;10.104;2024-03-02T00:30:55;12.10;99.90
11221;DHT22;8517;53.546;10.104;2024-03-02T00:33:25;12.00;99.90
11221;DHT22;8517;53.546;10.104;2024-03-02T00:35:53;12.00;99.90
11221;DHT22;8517;53.546;10.104;2024-03-02T00:38:20;11.90;99.90
11221;DHT22;8517;53.546;10.104;2024-03-02T00:40:48;11.80;99.90
11221;DHT22;8517;53.546;10.104;2024-03-02T00:43:43;11.80;99.90
11221;DHT22;8517;53.546;10.104;2024-03-02T00:46:11;11.70;99.90
11221;DHT22;8517;53.546;10.104;2024-03-02T00:48:47;11.60;99.90
11221;DHT22;8517;53.546;10.104;2024-03-02T00:51:14;11.60;99.90
11221;DHT22;8517;53.546;10.104;2024-03-02T00:53:41;11.50;99.90
11221;DHT22;8517;53.546;10.104;2024-03-02T00:56:10;11.50;99.90
11221;DHT22;8517;53.546;10.104;2024-03-02T00:58:37;11.50;99.90
11221;DHT22;8517;53.546;10.104;2024-03-02T01:01:04;11.50;99.90
11221;DHT22;8517;53.546;10.104;2024-03-02T01:03:31;11.50;99.90
11221;DHT22;8517;53.546;10.104;2024-03-02T01:06:00;11.50;99.90
11221;DHT22;8517;53.546;10.104;2024-03-02T01:08:27;11.50;99.90
11221;DHT22;8517;53.546;10.104;2024-03-02T01:10:53;11.50;99.90
11221;DHT22;8517;53.546;10.104;2024-03-02T01:13:21;11.50;99.90
11221;DHT22;8517;53.546;10.104;2024-03-02T01:15:48;11.50;99.90
11221;DHT22;8517;53.546;10.104;2024-03-02T01:18:15;11.50;99.90
11221;DHT22;8517;53.546;10.104;2024-03-02T01:20:42;11.50;99.90
11221;DHT22;8517;53.546;10.104;2024-03-02T01:23:10;11.60;99.90
11221;DHT22;8517;53.546;10.104;2024-03-02T01:25:37;11.60;99.90
11221;DHT22;8517;53.546;10.104;2024-03-02T01:28:05;11.60;99.90
11221;DHT22;8517;53.546;10.104;2024-03-02T01:30:31;11.60;99.90
11221;DHT22;8517;53.546;10.104;2024-03-02T01:32:58;11.60;99.90
11221;DHT22;8517;53.546;10.104;2024-03-02T01:35:25;11.60;99.90
11221;DHT22;8517;53.546;10.104;2024-03-02T01:37:53;11.60;99.90
11221;DHT22;8517;53.546;10.104;2024-03-02T01:40:21;11.60;99.90
11221;DHT22;8517;53.546;10.104;2024-03-02T01:42:52;11.60;99.90
11221;DHT22;8517;53.546;10.104;2024-03-02T01:45:19;11.60;99.90
11221;DHT22;8517;53.546;10.104;2024-03-02T01:47:46;11.60;99.90
11221;DHT22;8517;53.546;10.104;2024-03-02T01:50:13;11.60;99.90
11221;DHT22;8517;53.546;10.104;2024-03-02T01:52:40;11.60;99.90
11221;DHT22;8517;53.546;10.104;2024-03-02T01:55:07;11.70;99.90
11221;DHT22;8517;53.546;10.104;2024-03-02T01:57:36;11.60;99.90
11221;DHT22;8517;53.546;10.104;2024-03-02T02:00:03;11.60;99.90
11221;DHT22;8517;53.546;10.104;2024-03-02T02:02:31;11.70;99.90
11221;DHT22;8517;53.546;10.104;2024-03-02T02:04:57;11.70;99.90
11221;DHT22;8517;53.546;10.104;2024-03-02T02:07:24;11.70;99.90
11221;DHT22;8517;53.546;10.104;2024-03-02T02:09:51;11.70;99.90
11221;DHT22;8517;53.546;10.104;2024-03-02T02:12:18;11.70;99.90
11221;DHT22;8517;53.546;10.104;2024-03-02T02:14:49;11.70;99.90
11221;DHT22;8517;53.546;10.104;2024-03-02T02:17:16;11.70;99.90
11221;DHT22;8517;53.546;10.104;2024-03-02T02:19:43;11.60;99.90
11221;DHT22;8517;53.546;10.104;2024-03-02T02:22:11;11.70;99.90
11221;DHT22;8517;53.546;10.104;2024-03-02T02:24:40;11.60;99.90
11221;DHT22;8517;53.546;10.104;2024-03-02T02:27:06;11.60;99.90
11221;DHT22;8517;53.546;10.104;2024-03-02T02:29:33;11.60;99.90
11221;DHT22;8517;53.546;10.104;2024-03-02T02:32:00;11.50;99.90
11221;DHT22;8517;53.546;10.104;2024-03-02T02:34:27;11.50;99.90
11221;DHT22;8517;53.546;10.104;2024-03-02T02:36:54;11.50;99.90
11221;DHT22;8517;53.546;10.104;2024-03-02T02:39:23;11.50;99.90
11221;DHT22;8517;53.546;10.104;2024-03-02T02:41:50;11.40;99.90
11221;DHT22;8517;53.546;10.104;2024-03-02T02:44:16;11.30;99.90
11221;DHT22;8517;53.546;10.104;2024-03-02T02:46:43;11.30;99.90
11221;DHT22;8517;53.546;10.104;2024-03-02T02:49:10;11.20;99.90
11221;DHT22;8517;53.546;10.104;2024-03-02T02:51:37;11.20;99.90
11221;DHT22;8517;53.546;10.104;2024-03-02T02:54:03;11.20;99.90
11221;DHT22;8517;53.546;10.104;2024-03-02T02:56:32;11.10;99.90
11221;DHT22;8517;53.546;10.104;2024-03-02T02:58:58;11.10;99.90
11221;DHT22;8517;53.546;10.104;2024-03-02T03:01:25;11.10;99.90
11221;DHT22;8517;53.546;10.104;2024-03-02T03:03:52;11.10;99.90
11221;DHT22;8517;53.546;10.104;2024-03-02T03:06:19;11.10;99.90
11221;DHT22;8517;53.546;10.104;2024-03-02T03:08:47;11.10;99.90
11221;DHT22;8517;53.546;10.104;2024-03-02T03:11:14;11.10;99.90
11221;DHT22;8517;53.546;10.104;2024-03-02T03:13:42;11.10;99.90
11221;DHT22;8517;53.546;10.104;2024-03-02T03:16:09;11.10;99.90
11221;DHT22;8517;53.546;10.104;2024-03-02T03:18:36;11.10;99.90
11221;DHT22;8517;53.546;10.104;2024-03-02T03:21:04;11.10;99.90
11221;DHT22;8517;53.546;10.104;2024-03-02T03:23:30;11.10;99.90
11221;DHT22;8517;53.546;10.104;2024-03-02T03:25:57;11.10;99.90
11221;DHT22;8517;53.546;10.104;2024-03-02T03:28:24;11.10;99.90
11221;DHT22;8517;53.546;10.104;2024-03-02T03:30:52;11.10;99.90
11221;DHT22;8517;53.546;10.104;2024-03-02T03:33:19;11.10;99.90
11221;DHT22;8517;53.546;10.104;2024-03-02T03:35:45;11.10;99.90
11221;DHT22;8517;53.546;10.104;2024-03-02T03:38:13;11.10;99.90
11221;DHT22;8517;53.546;10.104;2024-03-02T03:40:40;11.20;99.90
11221;DHT22;8517;53.546;10.104;2024-03-02T03:43:07;11.10;99.90
11221;DHT22;8517;53.546;10.104;2024-03-02T03:45:34;11.10;99.90
11221;DHT22;8517;53.546;10.104;2024-03-02T03:48:01;11.10;99.90
11221;DHT22;8517;53.546;10.104;2024-03-02T03:50:28;11.10;99.90
11221;DHT22;8517;53.546;10.104;2024-03-02T03:52:55;11.10;99.90
11221;DHT22;8517;53.546;10.104;2024-03-02T03:55:22;11.20;99.90
11221;DHT22;8517;53.546;10.104;2024-03-02T03:57:48;11.20;99.90
11221;DHT22;8517;53.546;10.104;2024-03-02T04:00:15;11.20;99.90
11221;DHT22;8517;53.546;10.104;2024-03-02T04:02:42;11.20;99.90
11221;DHT22;8517;53.546;10.104;2024-03-02T04:05:10;11.20;99.90
11221;DHT22;8517;53.546;10.104;2024-03-02T04:07:37;11.20;99.90
11221;DHT22;8517;53.546;10.104;2024-03-02T04:10:09;11.20;99.90
11221;DHT22;8517;53.546;10.104;2024-03-02T04:12:36;11.30;99.90
11221;DHT22;8517;53.546;10.104;2024-03-02T04:15:04;11.30;99.90
11221;DHT22;8517;53.546;10.104;2024-03-02T04:17:32;11.30;99.90
11221;DHT22;8517;53.546;10.104;2024-03-02T04:20:02;11.20;99.90
11221;DHT22;8517;53.546;10.104;2024-03-02T04:22:33;11.30;99.90
11221;DHT22;8517;53.546;10.104;2024-03-02T04:25:01;11.30;99.90
11221;DHT22;8517;53.546;10.104;2024-03-02T04:27:30;11.30;99.90
11221;DHT22;8517;53.546;10.104;2024-03-02T04:29:57;11.30;99.90
11221;DHT22;8517;53.546;10.104;2024-03-02T04:32:23;11.30;99.90
11221;DHT22;8517;53.546;10.104;2024-03-02T04:34:50;11.30;99.90
11221;DHT22;8517;53.546;10.104;2024-03-02T04:37:17;11.30;99.90
11221;DHT22;8517;53.546;10.104;2024-03-02T04:39:45;11.30;99.90
11221;DHT22;8517;53.546;10.104;2024-03-02T04:42:12;11.30;99.90
11221;DHT22;8517;53.546;10.104;2024-03-02T04:44:39;11.30;99.90
11221;DHT22;8517;53.546;10.104;2024-03-02T04:47:06;11.30;99.90
11221;DHT22;8517;53.546;10.104;2024-03-02T04:49:32;11.30;99.90
11221;DHT22;8517;53.546;10.104;2024-03-02T04:51:59;11.30;99.90
11221;DHT22;8517;53.546;10.104;2024-03-02T04:54:26;11.30;99.90
11221;DHT22;8517;53.546;10.104;2024-03-02T04:56:54;11.20;99.90
11221;DHT22;8517;53.546;10.104;2024-03-02T04:59:21;11.20;99.90
11221;DHT22;8517;53.546;10.104;2024-03-02T05:01:48;11.30;99.90
11221;DHT22;8517;53.546;10.104;2024-03-02T05:04:14;11.20;99.90
11221;DHT22;8517;53.546;10.104;2024-03-02T05:06:41;11.20;99.90
11221;DHT22;8517;53.546;10.104;2024-03-02T05:09:08;11.10;99.90
11221;DHT22;8517;53.546;10.104;2024-03-02T05:11:35;11.20;99.90
11221;DHT22;8517;53.546;10.104;2024-03-02T05:14:37;11.10;99.90
11221;DHT22;8517;53.546;10.104;2024-03-02T05:17:04;11.10;99.90
11221;DHT22;8517;53.546;10.104;2024-03-02T05:19:31;11.10;99.90
11221;DHT22;8517;53.546;10.104;2024-03-02T05:21:57;11.10;99.90
11221;DHT22;8517;53.546;10.104;2024-03-02T05:24:24;11.10;99.90
11221;DHT22;8517;53.546;10.104;2024-03-02T05:26:53;11.00;99.90
11221;DHT22;8517;53.546;10.104;2024-03-02T05:29:20;11.00;99.90
11221;DHT22;8517;53.546;10.104;2024-03-02T05:31:48;11.00;99.90
11221;DHT22;8517;53.546;10.104;2024-03-02T05:34:15;11.00;99.90
11221;DHT22;8517;53.546;10.104;2024-03-02T05:36:41;11.00;99.90
11221;DHT22;8517;53.546;10.104;2024-03-02T05:39:08;11.00;99.90
11221;DHT22;8517;53.546;10.104;2024-03-02T05:41:36;11.00;99.90
11221;DHT22;8517;53.546;10.104;2024-03-02T05:44:04;11.00;99.90
11221;DHT22;8517;53.546;10.104;2024-03-02T05:46:30;10.90;99.90
11221;DHT22;8517;53.546;10.104;2024-03-02T05:48:59;10.90;99.90
11221;DHT22;8517;53.546;10.104;2024-03-02T05:51:26;10.90;99.90
11221;DHT22;8517;53.546;10.104;2024-03-02T05:53:52;11.00;99.90
11221;DHT22;8517;53.546;10.104;2024-03-02T05:56:19;10.90;99.90
11221;DHT22;8517;53.546;10.104;2024-03-02T05:58:46;10.90;99.90
11221;DHT22;8517;53.546;10.104;2024-03-02T06:01:23;10.90;99.90
11221;DHT22;8517;53.546;10.104;2024-03-02T06:03:54;11.00;99.90
11221;DHT22;8517;53.546;10.104;2024-03-02T06:06:22;11.00;99.90
11221;DHT22;8517;53.546;10.104;2024-03-02T06:08:49;10.90;99.90
11221;DHT22;8517;53.546;10.104;2024-03-02T06:11:15;10.90;99.90
11221;DHT22;8517;53.546;10.104;2024-03-02T06:13:42;11.00;99.90
11221;DHT22;8517;53.546;10.104;2024-03-02T06:16:09;10.90;99.90
11221;DHT22;8517;53.546;10.104;2024-03-02T06:18:36;11.00;99.90
11221;DHT22;8517;53.546;10.104;2024-03-02T06:21:03;10.90;99.90
11221;DHT22;8517;53.546;10.104;2024-03-02T06:23:32;11.00;99.90
11221;DHT22;8517;53.546;10.104;2024-03-02T06:25:58;10.90;99.90
11221;DHT22;8517;53.546;10.104;2024-03-02T06:28:25;10.90;99.90
11221;DHT22;8517;53.546;10.104;2024-03-02T06:30:52;10.90;99.90
11221;DHT22;8517;53.546;10.104;2024-03-02T06:33:19;11.00;99.90
11221;DHT22;8517;53.546;10.104;2024-03-02T06:35:46;11.00;99.90
11221;DHT22;8517;53.546;10.104;2024-03-02T06:38:14;10.90;99.90
11221;DHT22;8517;53.546;10.104;2024-03-02T06:40:43;11.00;99.90
11221;DHT22;8517;53.546;10.104;2024-03-02T06:43:10;11.00;99.90
11221;DHT22;8517;53.546;10.104;2024-03-02T06:45:36;11.00;99.90
11221;DHT22;8517;53.546;10.104;2024-03-02T06:48:03;11.00;99.90
11221;DHT22;8517;53.546;10.104;2024-03-02T06:50:30;11.00;99.90
11221;DHT22;8517;53.546;10.104;2024-03-02T06:52:57;11.00;99.90
11221;DHT22;8517;53.546;10.104;2024-03-02T06:55:24;11.00;99.90
11221;DHT22;8517;53.546;10.104;2024-03-02T06:57:52;11.00;99.90
11221;DHT22;8517;53.546;10.104;2024-03-02T07:00:19;11.00;99.90
11221;DHT22;8517;53.546;10.104;2024-03-02T07:02:46;11.00;99.90
11221;DHT22;8517;53.546;10.104;2024-03-02T07:05:13;11.10;99.90
11221;DHT22;8517;53.546;10.104;2024-03-02T07:07:40;11.00;99.90
11221;DHT22;8517;53.546;10.104;2024-03-02T07:10:08;11.10;99.90
11221;DHT22;8517;53.546;10.104;2024-03-02T07:12:35;11.10;99.90
11221;DHT22;8517;53.546;10.104;2024-03-02T07:15:04;11.10;99.90
11221;DHT22;8517;53.546;10.104;2024-03-02T07:17:50;11.10;99.90
11221;DHT22;8517;53.546;10.104;2024-03-02T07:20:17;11.10;99.90
11221;DHT22;8517;53.546;10.104;2024-03-02T07:22:44;11.20;99.90
11221;DHT22;8517;53.546;10.104;2024-03-02T07:25:11;11.20;99.90
11221;DHT22;8517;53.546;10.104;2024-03-02T07:27:38;11.20;99.90
11221;DHT22;8517;53.546;10.104;2024-03-02T07:30:07;11.20;99.90
11221;DHT22;8517;53.546;10.104;2024-03-02T07:32:34;11.30;99.90
11221;DHT22;8517;53.546;10.104;2024-03-02T07:35:01;11.30;99.90
11221;DHT22;8517;53.546;10.104;2024-03-02T07:37:29;11.30;99.90
11221;DHT22;8517;53.546;10.104;2024-03-02T07:39:56;11.40;99.90
11221;DHT22;8517;53.546;10.104;2024-03-02T07:42:23;11.40;99.90
11221;DHT22;8517;53.546;10.104;2024-03-02T07:44:53;11.40;99.90
11221;DHT22;8517;53.546;10.104;2024-03-02T07:47:21;11.40;99.90
11221;DHT22;8517;53.546;10.104;2024-03-02T07:49:48;11.50;99.90
11221;DHT22;8517;53.546;10.104;2024-03-02T07:52:15;11.50;99.90
11221;DHT22;8517;53.546;10.104;2024-03-02T07:54:42;11.60;99.90
11221;DHT22;8517;53.546;10.104;2024-03-02T07:57:08;11.60;99.90
11221;DHT22;8517;53.546;10.104;2024-03-02T07:59:36;11.70;99.90
11221;DHT22;8517;53.546;10.104;2024-03-02T08:02:03;11.70;99.90
11221;DHT22;8517;53.546;10.104;2024-03-02T08:04:31;11.70;99.90
11221;DHT22;8517;53.546;10.104;2024-03-02T08:06:58;11.80;99.90
11221;DHT22;8517;53.546;10.104;2024-03-02T08:09:25;11.80;99.90
11221;DHT22;8517;53.546;10.104;2024-03-02T08:11:52;11.90;99.90
11221;DHT22;8517;53.546;10.104;2024-03-02T08:14:19;11.90;99.90
11221;DHT22;8517;53.546;10.104;2024-03-02T08:16:46;11.90;99.90
11221;DHT22;8517;53.546;10.104;2024-03-02T08:19:13;11.90;99.90
11221;DHT22;8517;53.546;10.104;2024-03-02T08:21:41;12.00;99.90
11221;DHT22;8517;53.546;10.104;2024-03-02T08:24:09;12.00;99.90
11221;DHT22;8517;53.546;10.104;2024-03-02T08:26:35;12.10;99.90
11221;DHT22;8517;53.546;10.104;2024-03-02T08:29:02;12.20;99.90
11221;DHT22;8517;53.546;10.104;2024-03-02T08:31:29;12.20;99.90
11221;DHT22;8517;53.546;10.104;2024-03-02T08:33:56;12.30;99.90
11221;DHT22;8517;53.546;10.104;2024-03-02T08:36:24;12.30;99.90
11221;DHT22;8517;53.546;10.104;2024-03-02T08:38:52;12.30;99.90
11221;DHT22;8517;53.546;10.104;2024-03-02T08:41:21;12.30;99.90
11221;DHT22;8517;53.546;10.104;2024-03-02T08:43:48;12.30;99.90
11221;DHT22;8517;53.546;10.104;2024-03-02T08:46:15;12.20;99.90
11221;DHT22;8517;53.546;10.104;2024-03-02T08:48:42;12.20;99.90
11221;DHT22;8517;53.546;10.104;2024-03-02T08:51:09;12.20;99.90
11221;DHT22;8517;53.546;10.104;2024-03-02T08:53:36;12.20;99.90
11221;DHT22;8517;53.546;10.104;2024-03-02T08:56:05;12.20;99.90
11221;DHT22;8517;53.546;10.104;2024-03-02T08:58:31;12.30;99.90
11221;DHT22;8517;53.546;10.104;2024-03-02T09:00:58;12.30;99.90
11221;DHT22;8517;53.546;10.104;2024-03-02T09:03:25;12.30;99.90
11221;DHT22;8517;53.546;10.104;2024-03-02T09:05:52;12.40;99.90
11221;DHT22;8517;53.546;10.104;2024-03-02T09:08:19;12.40;99.90
11221;DHT22;8517;53.546;10.104;2024-03-02T09:10:46;12.40;99.90
11221;DHT22;8517;53.546;10.104;2024-03-02T09:13:16;12.40;99.90
11221;DHT22;8517;53.546;10.104;2024-03-02T09:15:42;12.40;99.90
11221;DHT22;8517;53.546;10.104;2024-03-02T09:18:10;12.50;99.90
11221;DHT22;8517;53.546;10.104;2024-03-02T09:20:37;12.50;99.90
11221;DHT22;8517;53.546;10.104;2024-03-02T09:23:04;12.70;99.90
11221;DHT22;8517;53.546;10.104;2024-03-02T09:25:30;12.80;99.90
11221;DHT22;8517;53.546;10.104;2024-03-02T09:30:53;13.30;99.90
11221;DHT22;8517;53.546;10.104;2024-03-02T09:33:20;13.60;99.90
11221;DHT22;8517;53.546;10.104;2024-03-02T09:35:47;13.80;99.90
11221;DHT22;8517;53.546;10.104;2024-03-02T09:38:15;14.00;99.90
11221;DHT22;8517;53.546;10.104;2024-03-02T09:40:41;14.10;99.90
11221;DHT22;8517;53.546;10.104;2024-03-02T09:43:09;14.20;99.90
11221;DHT22;8517;53.546;10.104;2024-03-02T09:45:36;14.20;99.90
11221;DHT22;8517;53.546;10.104;2024-03-02T09:48:05;14.30;99.90
11221;DHT22;8517;53.546;10.104;2024-03-02T09:53:45;14.40;99.90
11221;DHT22;8517;53.546;10.104;2024-03-02T09:56:22;14.50;99.90
11221;DHT22;8517;53.546;10.104;2024-03-02T09:58:54;14.60;99.90
11221;DHT22;8517;53.546;10.104;2024-03-02T10:01:21;14.80;99.90
11221;DHT22;8517;53.546;10.104;2024-03-02T10:03:50;14.90;99.90
11221;DHT22;8517;53.546;10.104;2024-03-02T10:06:21;15.10;99.90
11221;DHT22;8517;53.546;10.104;2024-03-02T10:08:49;15.30;99.90
11221;DHT22;8517;53.546;10.104;2024-03-02T10:11:28;15.50;99.90
11221;DHT22;8517;53.546;10.104;2024-03-02T10:14:14;15.70;99.90
11221;DHT22;8517;53.546;10.104;2024-03-02T10:16:42;15.80;99.90
11221;DHT22;8517;53.546;10.104;2024-03-02T10:19:17;15.90;99.90
11221;DHT22;8517;53.546;10.104;2024-03-02T10:21:45;16.00;99.90
11221;DHT22;8517;53.546;10.104;2024-03-02T10:24:12;16.10;99.90
11221;DHT22;8517;53.546;10.104;2024-03-02T10:26:39;16.00;99.90
11221;DHT22;8517;53.546;10.104;2024-03-02T10:29:25;16.00;99.90
11221;DHT22;8517;53.546;10.104;2024-03-02T10:31:54;16.10;99.90
11221;DHT22;8517;53.546;10.104;2024-03-02T10:34:23;16.10;99.90
11221;DHT22;8517;53.546;10.104;2024-03-02T10:36:49;16.10;99.90
11221;DHT22;8517;53.546;10.104;2024-03-02T10:39:17;16.10;99.90
11221;DHT22;8517;53.546;10.104;2024-03-02T10:41:44;16.00;99.90
11221;DHT22;8517;53.546;10.104;2024-03-02T10:44:12;15.90;99.90
11221;DHT22;8517;53.546;10.104;2024-03-02T10:46:39;15.90;99.90
11221;DHT22;8517;53.546;10.104;2024-03-02T10:49:06;15.80;99.90
11221;DHT22;8517;53.546;10.104;2024-03-02T10:51:34;15.80;99.90
11221;DHT22;8517;53.546;10.104;2024-03-02T10:54:04;15.70;99.90
11221;DHT22;8517;53.546;10.104;2024-03-02T10:56:32;15.80;99.90
11221;DHT22;8517;53.546;10.104;2024-03-02T10:59:03;15.80;99.90
11221;DHT22;8517;53.546;10.104;2024-03-02T11:01:31;15.80;99.90
11221;DHT22;8517;53.546;10.104;2024-03-02T11:03:59;15.90;99.90
11221;DHT22;8517;53.546;10.104;2024-03-02T11:06:29;16.00;99.90
11221;DHT22;8517;53.546;10.104;2024-03-02T11:09:06;16.10;99.90
11221;DHT22;8517;53.546;10.104;2024-03-02T11:11:37;16.10;99.90
11221;DHT22;8517;53.546;10.104;2024-03-02T11:14:07;16.20;99.90
11221;DHT22;8517;53.546;10.104;2024-03-02T11:16:38;16.40;99.90
11221;DHT22;8517;53.546;10.104;2024-03-02T11:19:08;16.40;99.90
11221;DHT22;8517;53.546;10.104;2024-03-02T11:21:36;16.40;99.90
11221;DHT22;8517;53.546;10.104;2024-03-02T11:24:32;16.40;99.90
11221;DHT22;8517;53.546;10.104;2024-03-02T11:27:00;16.40;99.90
11221;DHT22;8517;53.546;10.104;2024-03-02T11:29:46;16.50;99.90
11221;DHT22;8517;53.546;10.104;2024-03-02T11:32:16;16.40;99.90
11221;DHT22;8517;53.546;10.104;2024-03-02T11:34:44;16.40;99.90
11221;DHT22;8517;53.546;10.104;2024-03-02T11:37:12;16.40;99.90
11221;DHT22;8517;53.546;10.104;2024-03-02T11:39:43;16.40;99.90
11221;DHT22;8517;53.546;10.104;2024-03-02T11:42:11;16.40;99.90
11221;DHT22;8517;53.546;10.104;2024-03-02T11:44:40;16.40;99.90
11221;DHT22;8517;53.546;10.104;2024-03-02T11:47:08;16.30;99.90
11221;DHT22;8517;53.546;10.104;2024-03-02T11:49:37;16.30;99.90
11221;DHT22;8517;53.546;10.104;2024-03-02T11:52:06;16.40;99.90
11221;DHT22;8517;53.546;10.104;2024-03-02T11:54:34;16.40;99.90
11221;DHT22;8517;53.546;10.104;2024-03-02T11:57:03;16.30;99.90
11221;DHT22;8517;53.546;10.104;2024-03-02T11:59:30;16.30;99.90
11221;DHT22;8517;53.546;10.104;2024-03-02T12:01:58;16.30;99.90
11221;DHT22;8517;53.546;10.104;2024-03-02T12:04:27;16.20;99.90
11221;DHT22;8517;53.546;10.104;2024-03-02T12:06:55;16.30;99.90
11221;DHT22;8517;53.546;10.104;2024-03-02T12:09:22;16.20;99.90
11221;DHT22;8517;53.546;10.104;2024-03-02T12:12:03;16.20;99.90
11221;DHT22;8517;53.546;10.104;2024-03-02T12:14:31;16.20;99.90
11221;DHT22;8517;53.546;10.104;2024-03-02T12:16:58;16.10;99.90
11221;DHT22;8517;53.546;10.104;2024-03-02T12:19:26;16.10;99.90
11221;DHT22;8517;53.546;10.104;2024-03-02T12:21:53;16.10;99.90
11221;DHT22;8517;53.546;10.104;2024-03-02T12:24:21;16.20;99.90
11221;DHT22;8517;53.546;10.104;2024-03-02T12:26:49;16.20;99.90
11221;DHT22;8517;53.546;10.104;2024-03-02T12:29:19;16.20;99.90
11221;DHT22;8517;53.546;10.104;2024-03-02T12:31:48;16.20;99.90
11221;DHT22;8517;53.546;10.104;2024-03-02T12:34:16;16.30;99.90
11221;DHT22;8517;53.546;10.104;2024-03-02T12:36:44;16.30;99.90
11221;DHT22;8517;53.546;10.104;2024-03-02T12:39:13;16.40;99.90
11221;DHT22;8517;53.546;10.104;2024-03-02T12:41:40;16.40;99.90
11221;DHT22;8517;53.546;10.104;2024-03-02T12:44:08;16.40;99.90
11221;DHT22;8517;53.546;10.104;2024-03-02T12:46:36;16.40;99.90
11221;DHT22;8517;53.546;10.104;2024-03-02T12:49:08;16.40;99.90
11221;DHT22;8517;53.546;10.104;2024-03-02T12:51:37;16.40;99.90
11221;DHT22;8517;53.546;10.104;2024-03-02T12:54:06;16.40;99.90
11221;DHT22;8517;53.546;10.104;2024-03-02T12:56:33;16.40;99.90
11221;DHT22;8517;53.546;10.104;2024-03-02T12:59:00;16.40;99.90
11221;DHT22;8517;53.546;10.104;2024-03-02T13:01:27;16.40;99.90
11221;DHT22;8517;53.546;10.104;2024-03-02T13:03:55;16.40;99.90
11221;DHT22;8517;53.546;10.104;2024-03-02T13:06:23;16.40;99.90
11221;DHT22;8517;53.546;10.104;2024-03-02T13:08:53;16.40;99.90
11221;DHT22;8517;53.546;10.104;2024-03-02T13:11:21;16.40;99.90
11221;DHT22;8517;53.546;10.104;2024-03-02T13:13:48;16.40;99.90
11221;DHT22;8517;53.546;10.104;2024-03-02T13:16:15;16.40;99.90
11221;DHT22;8517;53.546;10.104;2024-03-02T13:18:44;16.30;99.90
11221;DHT22;8517;53.546;10.104;2024-03-02T13:21:13;16.30;99.90
11221;DHT22;8517;53.546;10.104;2024-03-02T13:23:40;16.30;99.90
11221;DHT22;8517;53.546;10.104;2024-03-02T13:26:06;16.30;99.90
11221;DHT22;8517;53.546;10.104;2024-03-02T13:28:36;16.40;99.90
11221;DHT22;8517;53.546;10.104;2024-03-02T13:31:04;16.40;99.90
11221;DHT22;8517;53.546;10.104;2024-03-02T13:33:31;16.40;99.90
11221;DHT22;8517;53.546;10.104;2024-03-02T13:35:58;16.40;99.90
11221;DHT22;8517;53.546;10.104;2024-03-02T13:38:26;16.40;99.90
11221;DHT22;8517;53.546;10.104;2024-03-02T13:40:56;16.40;99.90
11221;DHT22;8517;53.546;10.104;2024-03-02T13:43:23;16.40;99.90
11221;DHT22;8517;53.546;10.104;2024-03-02T13:45:50;16.40;99.90
11221;DHT22;8517;53.546;10.104;2024-03-02T13:48:19;16.40;99.90
11221;DHT22;8517;53.546;10.104;2024-03-02T13:50:46;16.40;99.90
11221;DHT22;8517;53.546;10.104;2024-03-02T13:53:12;16.30;99.90
11221;DHT22;8517;53.546;10.104;2024-03-02T13:55:41;16.30;99.90
11221;DHT22;8517;53.546;10.104;2024-03-02T13:58:08;16.30;99.90
11221;DHT22;8517;53.546;10.104;2024-03-02T14:00:36;16.30;99.90
11221;DHT22;8517;53.546;10.104;2024-03-02T14:03:03;16.30;99.90
11221;DHT22;8517;53.546;10.104;2024-03-02T14:05:30;16.30;99.90
11221;DHT22;8517;53.546;10.104;2024-03-02T14:07:57;16.40;99.90
11221;DHT22;8517;53.546;10.104;2024-03-02T14:10:25;16.40;99.90
11221;DHT22;8517;53.546;10.104;2024-03-02T14:12:54;16.40;99.90
11221;DHT22;8517;53.546;10.104;2024-03-02T14:15:22;16.40;99.90
11221;DHT22;8517;53.546;10.104;2024-03-02T14:17:49;16.40;99.90
11221;DHT22;8517;53.546;10.104;2024-03-02T14:20:16;16.40;99.90
11221;DHT22;8517;53.546;10.104;2024-03-02T14:22:47;16.40;99.90
11221;DHT22;8517;53.546;10.104;2024-03-02T14:25:14;16.50;99.90
11221;DHT22;8517;53.546;10.104;2024-03-02T14:27:41;16.50;99.90
11221;DHT22;8517;53.546;10.104;2024-03-02T14:30:11;16.60;99.90
11221;DHT22;8517;53.546;10.104;2024-03-02T14:32:38;16.60;99.90
11221;DHT22;8517;53.546;10.104;2024-03-02T14:35:13;16.70;99.90
11221;DHT22;8517;53.546;10.104;2024-03-02T14:37:41;16.70;99.90
11221;DHT22;8517;53.546;10.104;2024-03-02T14:40:09;16.80;99.90
11221;DHT22;8517;53.546;10.104;2024-03-02T14:42:37;16.80;99.90
11221;DHT22;8517;53.546;10.104;2024-03-02T14:45:15;16.80;99.90
11221;DHT22;8517;53.546;10.104;2024-03-02T14:47:41;16.80;99.90
11221;DHT22;8517;53.546;10.104;2024-03-02T14:50:09;16.90;99.90
11221;DHT22;8517;53.546;10.104;2024-03-02T14:52:38;16.90;99.90
11221;DHT22;8517;53.546;10.104;2024-03-02T14:55:06;16.90;99.90
11221;DHT22;8517;53.546;10.104;2024-03-02T14:57:33;16.80;99.90
11221;DHT22;8517;53.546;10.104;2024-03-02T15:00:11;16.80;99.90
11221;DHT22;8517;53.546;10.104;2024-03-02T15:02:39;16.70;99.90
11221;DHT22;8517;53.546;10.104;2024-03-02T15:05:07;16.70;99.90
11221;DHT22;8517;53.546;10.104;2024-03-02T15:07:34;16.70;99.90
11221;DHT22;8517;53.546;10.104;2024-03-02T15:10:03;16.70;99.90
11221;DHT22;8517;53.546;10.104;2024-03-02T15:12:30;16.60;99.90
11221;DHT22;8517;53.546;10.104;2024-03-02T15:14:57;16.50;99.90
11221;DHT22;8517;53.546;10.104;2024-03-02T15:17:24;16.50;99.90
11221;DHT22;8517;53.546;10.104;2024-03-02T15:19:53;16.50;99.90
11221;DHT22;8517;53.546;10.104;2024-03-02T15:22:19;16.40;99.90
11221;DHT22;8517;53.546;10.104;2024-03-02T15:24:46;16.30;99.90
11221;DHT22;8517;53.546;10.104;2024-03-02T15:27:13;16.30;99.90
11221;DHT22;8517;53.546;10.104;2024-03-02T15:29:40;16.20;99.90
11221;DHT22;8517;53.546;10.104;2024-03-02T15:32:07;16.20;99.90
11221;DHT22;8517;53.546;10.104;2024-03-02T15:34:34;16.10;99.90
11221;DHT22;8517;53.546;10.104;2024-03-02T15:37:03;16.00;99.90
11221;DHT22;8517;53.546;10.104;2024-03-02T15:39:30;16.00;99.90
11221;DHT22;8517;53.546;10.104;2024-03-02T15:41:57;15.90;99.90